2NY9 weather

Kayutah Lake Airport
Alpine, New York, United States

Public forecast

Using degrees Fahrenheit for public forecast. Weather courtesy of forecast.io.

Closest aviation weather report (METAR) to Kayutah Lake Airport

Closest report is Ithaca Tompkins Regional Airport, 13.8 nm (25.5 km) ENE. Retrieved 2019/10/18 17:55 UTC (7 minutes ago):

KITH 181755Z 31014KT 10SM SCT020 OVC030 07/03 A2997

Closest aviation forecast (TAF) to Kayutah Lake Airport

Closest forecast is Ithaca Tompkins Regional Airport, 13.8 nm (25.5 km) ENE. Retrieved 2019/10/18 18:36 UTC (0 seconds ago):

TAF KITH 181733Z 1818/1918 31009KT P6SM BKN025 FM182100 31007KT P6SM BKN035 FM190100 VRB03KT P6SM SCT110